IBE7221 LEBL-LEMD
Flight info
| Callsign | IBE7221 |
|---|---|
| Flight time | N/A |
| Altitude | 29000 |
| Route | SENIA Z596 NEXAS N975 ADUXO |
| Aircraft | A320/M-SDE3FGHIRWY/LB1 |
Departure
| Time | 2026-05-07 12:46 |
|---|---|
| Airport | Josep Tarradellas Barcelona-El Prat Airport (LEBL) |
Arrival
| Time | N/A |
|---|---|
| Airport | Adolfo Suárez Madrid–Barajas Airport (LEMD) |
| Time | Latitude | Longitude | Altitude | Speed | Heading |
|---|---|---|---|---|---|
| 2026-05-07 12:14 | 41.29071 | 2.08163 | 3 ft | 0 kts | 335° |
| 2026-05-07 12:36 | 41.29070 | 2.08163 | 3 ft | 2 kts | 335° |
| 2026-05-07 12:36 | 41.29047 | 2.08176 | 3 ft | 4 kts | 338° |
| 2026-05-07 12:36 | 41.29022 | 2.08188 | 3 ft | 4 kts | 348° |
| 2026-05-07 12:36 | 41.28996 | 2.08190 | 4 ft | 4 kts | 27° |
| 2026-05-07 12:37 | 41.28987 | 2.08180 | 4 ft | 0 kts | 65° |
| 2026-05-07 12:39 | 41.28989 | 2.08187 | 4 ft | 4 kts | 65° |
| 2026-05-07 12:39 | 41.29009 | 2.08242 | 3 ft | 9 kts | 64° |
| 2026-05-07 12:40 | 41.29042 | 2.08334 | 4 ft | 13 kts | 64° |
| 2026-05-07 12:40 | 41.29123 | 2.08411 | 4 ft | 17 kts | 18° |
| 2026-05-07 12:40 | 41.29244 | 2.08449 | 3 ft | 17 kts | 351° |
| 2026-05-07 12:40 | 41.29360 | 2.08383 | 3 ft | 20 kts | 336° |
| 2026-05-07 12:41 | 41.29483 | 2.08308 | 4 ft | 19 kts | 335° |
| 2026-05-07 12:41 | 41.29558 | 2.08195 | 3 ft | 17 kts | 255° |
| 2026-05-07 12:41 | 41.29512 | 2.08057 | 3 ft | 16 kts | 245° |
| 2026-05-07 12:41 | 41.29469 | 2.07931 | 3 ft | 14 kts | 245° |
| 2026-05-07 12:42 | 41.29428 | 2.07815 | 3 ft | 13 kts | 244° |
| 2026-05-07 12:42 | 41.29392 | 2.07705 | 3 ft | 12 kts | 246° |
| 2026-05-07 12:42 | 41.29357 | 2.07603 | 4 ft | 12 kts | 245° |
| 2026-05-07 12:42 | 41.29334 | 2.07505 | 3 ft | 11 kts | 248° |
| 2026-05-07 12:43 | 41.29303 | 2.07418 | 3 ft | 10 kts | 247° |
| 2026-05-07 12:43 | 41.29322 | 2.07344 | 3 ft | 9 kts | 317° |
| 2026-05-07 12:43 | 41.29332 | 2.07279 | 3 ft | 7 kts | 277° |
| 2026-05-07 12:43 | 41.29358 | 2.07237 | 3 ft | 5 kts | 329° |
| 2026-05-07 12:44 | 41.29364 | 2.07233 | 3 ft | 0 kts | 334° |
| 2026-05-07 12:44 | 41.29382 | 2.07223 | 4 ft | 10 kts | 336° |
| 2026-05-07 12:44 | 41.29427 | 2.07195 | 5 ft | 10 kts | 335° |
| 2026-05-07 12:45 | 41.29487 | 2.07214 | 4 ft | 9 kts | 47° |
| 2026-05-07 12:45 | 41.29515 | 2.07291 | 5 ft | 12 kts | 65° |
| 2026-05-07 12:45 | 41.29632 | 2.07639 | 5 ft | 82 kts | 66° |
| 2026-05-07 12:45 | 41.29965 | 2.08707 | 59 ft | 159 kts | 66° |
| 2026-05-07 12:46 | 41.30496 | 2.10186 | 575 ft | 191 kts | 66° |
| 2026-05-07 12:46 | 41.31049 | 2.11937 | 1296 ft | 221 kts | 69° |
| 2026-05-07 12:46 | 41.31634 | 2.13950 | 2087 ft | 242 kts | 69° |
| 2026-05-07 12:46 | 41.32342 | 2.16036 | 3006 ft | 250 kts | 65° |
| 2026-05-07 12:47 | 41.32863 | 2.18266 | 3898 ft | 259 kts | 89° |
| 2026-05-07 12:47 | 41.32387 | 2.20577 | 4822 ft | 267 kts | 121° |
| 2026-05-07 12:47 | 41.31276 | 2.22580 | 5810 ft | 271 kts | 125° |
| 2026-05-07 12:47 | 41.30148 | 2.24607 | 6771 ft | 275 kts | 126° |
| 2026-05-07 12:48 | 41.29064 | 2.26681 | 7670 ft | 279 kts | 121° |
| 2026-05-07 12:48 | 41.28122 | 2.28987 | 8609 ft | 283 kts | 116° |
| 2026-05-07 12:48 | 41.27285 | 2.31336 | 9524 ft | 287 kts | 115° |
| 2026-05-07 12:48 | 41.26450 | 2.33785 | 10288 ft | 297 kts | 115° |
| 2026-05-07 12:49 | 41.25559 | 2.36386 | 10626 ft | 320 kts | 115° |
| 2026-05-07 12:49 | 41.24601 | 2.39119 | 11266 ft | 330 kts | 116° |
| 2026-05-07 12:49 | 41.23607 | 2.41899 | 12060 ft | 335 kts | 117° |
| 2026-05-07 12:49 | 41.22588 | 2.44704 | 12869 ft | 339 kts | 118° |
| 2026-05-07 12:50 | 41.21544 | 2.47542 | 13685 ft | 344 kts | 119° |
| 2026-05-07 12:50 | 41.20487 | 2.50407 | 14400 ft | 348 kts | 118° |
| 2026-05-07 12:50 | 41.19413 | 2.53306 | 15107 ft | 352 kts | 118° |
| 2026-05-07 12:50 | 41.18329 | 2.56231 | 15815 ft | 355 kts | 118° |
| 2026-05-07 12:51 | 41.17232 | 2.59192 | 16522 ft | 359 kts | 119° |
| 2026-05-07 12:51 | 41.15863 | 2.61948 | 17192 ft | 359 kts | 134° |
| 2026-05-07 12:51 | 41.14012 | 2.64160 | 17880 ft | 359 kts | 148° |
| 2026-05-07 12:51 | 41.11799 | 2.65665 | 18526 ft | 358 kts | 163° |
| 2026-05-07 12:52 | 41.09371 | 2.66375 | 19128 ft | 358 kts | 177° |
| 2026-05-07 12:52 | 41.06885 | 2.66306 | 19727 ft | 359 kts | 187° |
| 2026-05-07 12:52 | 41.04388 | 2.66029 | 20351 ft | 361 kts | 187° |
| 2026-05-07 12:52 | 41.01874 | 2.65753 | 20977 ft | 364 kts | 187° |
| 2026-05-07 12:53 | 40.99376 | 2.65195 | 21586 ft | 364 kts | 199° |
| 2026-05-07 12:53 | 40.97065 | 2.63871 | 22194 ft | 364 kts | 212° |
| 2026-05-07 12:53 | 40.95068 | 2.61819 | 22818 ft | 364 kts | 226° |
| 2026-05-07 12:53 | 40.93515 | 2.59171 | 23446 ft | 367 kts | 239° |
| 2026-05-07 12:54 | 40.92494 | 2.56078 | 23983 ft | 370 kts | 251° |
| 2026-05-07 12:54 | 40.91744 | 2.52821 | 24523 ft | 370 kts | 251° |
| 2026-05-07 12:54 | 40.90992 | 2.49566 | 25062 ft | 371 kts | 251° |
| 2026-05-07 12:54 | 40.90234 | 2.46305 | 25595 ft | 371 kts | 250° |
| 2026-05-07 12:55 | 40.89472 | 2.43044 | 26105 ft | 372 kts | 250° |
| 2026-05-07 12:55 | 40.88707 | 2.39777 | 26606 ft | 372 kts | 250° |
| 2026-05-07 12:55 | 40.87940 | 2.36512 | 27103 ft | 372 kts | 250° |
| 2026-05-07 12:55 | 40.87174 | 2.33248 | 27592 ft | 372 kts | 249° |
| 2026-05-07 12:56 | 40.86404 | 2.29982 | 28073 ft | 373 kts | 249° |
| 2026-05-07 12:56 | 40.85626 | 2.26700 | 28546 ft | 375 kts | 249° |
| 2026-05-07 12:56 | 40.84846 | 2.23412 | 28916 ft | 376 kts | 249° |
| 2026-05-07 12:56 | 40.84082 | 2.20138 | 28985 ft | 368 kts | 251° |
| 2026-05-07 12:57 | 40.83709 | 2.13542 | 28990 ft | 361 kts | 265° |
| 2026-05-07 12:57 | 40.83904 | 2.06946 | 28989 ft | 359 kts | 265° |
| 2026-05-07 12:58 | 40.84086 | 2.00369 | 28989 ft | 358 kts | 265° |
| 2026-05-07 12:58 | 40.84263 | 1.93835 | 28989 ft | 358 kts | 265° |
| 2026-05-07 12:59 | 40.84444 | 1.87211 | 29013 ft | 358 kts | 265° |
| 2026-05-07 12:59 | 40.84613 | 1.80654 | 29006 ft | 357 kts | 265° |
| 2026-05-07 13:00 | 40.84777 | 1.74103 | 28993 ft | 357 kts | 265° |
| 2026-05-07 13:00 | 40.84939 | 1.67561 | 28990 ft | 356 kts | 265° |
| 2026-05-07 13:01 | 40.85100 | 1.61057 | 28984 ft | 357 kts | 265° |
| 2026-05-07 13:01 | 40.85260 | 1.54512 | 28985 ft | 356 kts | 264° |
| 2026-05-07 13:02 | 40.85410 | 1.47965 | 28983 ft | 357 kts | 264° |
| 2026-05-07 13:02 | 40.85556 | 1.41394 | 28976 ft | 358 kts | 264° |
| 2026-05-07 13:03 | 40.85704 | 1.34820 | 28973 ft | 358 kts | 264° |
| 2026-05-07 13:03 | 40.85849 | 1.28238 | 28972 ft | 358 kts | 264° |
| 2026-05-07 13:04 | 40.85986 | 1.21664 | 28971 ft | 358 kts | 264° |
| 2026-05-07 13:04 | 40.86121 | 1.15081 | 28972 ft | 359 kts | 264° |
| 2026-05-07 13:05 | 40.86251 | 1.08477 | 28969 ft | 361 kts | 265° |
| 2026-05-07 13:05 | 40.86378 | 1.01841 | 28962 ft | 362 kts | 265° |
| 2026-05-07 13:06 | 40.86503 | 0.95185 | 28963 ft | 363 kts | 265° |
| 2026-05-07 13:06 | 40.86625 | 0.88507 | 28964 ft | 364 kts | 265° |
| 2026-05-07 13:07 | 40.86743 | 0.81822 | 28958 ft | 364 kts | 265° |
| 2026-05-07 13:07 | 40.86855 | 0.75132 | 28979 ft | 365 kts | 265° |
| 2026-05-07 13:08 | 40.86945 | 0.68419 | 28960 ft | 366 kts | 264° |
| 2026-05-07 13:08 | 40.86986 | 0.61670 | 28955 ft | 368 kts | 264° |
| 2026-05-07 13:09 | 40.87017 | 0.54899 | 28952 ft | 369 kts | 264° |
| 2026-05-07 13:09 | 40.87057 | 0.48120 | 28953 ft | 370 kts | 264° |
| 2026-05-07 13:10 | 40.87095 | 0.41322 | 28952 ft | 370 kts | 264° |
| 2026-05-07 13:10 | 40.87133 | 0.34514 | 28964 ft | 371 kts | 264° |
| 2026-05-07 13:11 | 40.87164 | 0.27676 | 28945 ft | 372 kts | 264° |
| 2026-05-07 13:11 | 40.87194 | 0.20835 | 28945 ft | 373 kts | 264° |
| 2026-05-07 13:12 | 40.87216 | 0.13986 | 28938 ft | 374 kts | 264° |
| 2026-05-07 13:12 | 40.87231 | 0.07109 | 28939 ft | 374 kts | 264° |
| 2026-05-07 13:13 | 40.87240 | 0.00238 | 28942 ft | 374 kts | 264° |
| 2026-05-07 13:13 | 40.87250 | -0.06594 | 28949 ft | 375 kts | 264° |
| 2026-05-07 13:14 | 40.87259 | -0.13543 | 28939 ft | 376 kts | 264° |
| 2026-05-07 13:14 | 40.87265 | -0.20407 | 28938 ft | 376 kts | 264° |
| 2026-05-07 13:15 | 40.87263 | -0.27318 | 28942 ft | 376 kts | 264° |
| 2026-05-07 13:15 | 40.87250 | -0.34234 | 28936 ft | 376 kts | 264° |
| 2026-05-07 13:16 | 40.87236 | -0.41160 | 28935 ft | 377 kts | 264° |
| 2026-05-07 13:16 | 40.87222 | -0.48077 | 28936 ft | 377 kts | 264° |
| 2026-05-07 13:17 | 40.87213 | -0.55000 | 28935 ft | 377 kts | 264° |
| 2026-05-07 13:17 | 40.87200 | -0.61926 | 28936 ft | 377 kts | 264° |
| 2026-05-07 13:18 | 40.87175 | -0.68842 | 28937 ft | 376 kts | 263° |
| 2026-05-07 13:18 | 40.87135 | -0.75756 | 28936 ft | 376 kts | 263° |
| 2026-05-07 13:19 | 40.86258 | -0.82436 | 28941 ft | 366 kts | 245° |
| 2026-05-07 13:19 | 40.84489 | -0.88748 | 28933 ft | 367 kts | 245° |
| 2026-05-07 13:20 | 40.82734 | -0.95087 | 28936 ft | 368 kts | 245° |
| 2026-05-07 13:20 | 40.80983 | -1.01436 | 28937 ft | 368 kts | 245° |
| 2026-05-07 13:21 | 40.79222 | -1.07796 | 28941 ft | 369 kts | 245° |
| 2026-05-07 13:21 | 40.77445 | -1.14140 | 28942 ft | 369 kts | 245° |
| 2026-05-07 13:22 | 40.75662 | -1.20490 | 28925 ft | 370 kts | 245° |
| 2026-05-07 13:22 | 40.73877 | -1.26869 | 28934 ft | 371 kts | 245° |
| 2026-05-07 13:23 | 40.72088 | -1.33254 | 28943 ft | 372 kts | 245° |
| 2026-05-07 13:23 | 40.70295 | -1.39641 | 28942 ft | 372 kts | 245° |
| 2026-05-07 13:24 | 40.68494 | -1.46034 | 28941 ft | 372 kts | 245° |
| 2026-05-07 13:24 | 40.66689 | -1.52430 | 28937 ft | 372 kts | 245° |
| 2026-05-07 13:25 | 40.64874 | -1.58821 | 28940 ft | 373 kts | 245° |
| 2026-05-07 13:25 | 40.63056 | -1.65207 | 28951 ft | 373 kts | 245° |
| 2026-05-07 13:26 | 40.61227 | -1.71608 | 28947 ft | 373 kts | 245° |
| 2026-05-07 13:26 | 40.59401 | -1.77999 | 28940 ft | 374 kts | 245° |
| 2026-05-07 13:27 | 40.57574 | -1.84400 | 28947 ft | 374 kts | 245° |
| 2026-05-07 13:27 | 40.55742 | -1.90795 | 28950 ft | 374 kts | 245° |
| 2026-05-07 13:28 | 40.53905 | -1.97182 | 28971 ft | 374 kts | 245° |
| 2026-05-07 13:28 | 40.52058 | -2.03570 | 28959 ft | 374 kts | 245° |
| 2026-05-07 13:29 | 40.50214 | -2.09946 | 28957 ft | 373 kts | 245° |
| 2026-05-07 13:29 | 40.48674 | -2.15243 | 28961 ft | 373 kts | 245° |
| 2026-05-07 13:30 | 40.47744 | -2.18432 | 28773 ft | 375 kts | 245° |
| 2026-05-07 13:30 | 40.46813 | -2.21631 | 28494 ft | 375 kts | 245° |
| 2026-05-07 13:30 | 40.45886 | -2.24838 | 28219 ft | 377 kts | 246° |
| 2026-05-07 13:30 | 40.45296 | -2.28193 | 27948 ft | 377 kts | 260° |
| 2026-05-07 13:31 | 40.45339 | -2.31612 | 27686 ft | 375 kts | 274° |
| 2026-05-07 13:31 | 40.45992 | -2.34928 | 27401 ft | 377 kts | 287° |
| 2026-05-07 13:31 | 40.47169 | -2.38025 | 26834 ft | 381 kts | 295° |
| 2026-05-07 13:31 | 40.48465 | -2.41071 | 26337 ft | 380 kts | 295° |
| 2026-05-07 13:32 | 40.49761 | -2.44095 | 25727 ft | 382 kts | 296° |
| 2026-05-07 13:32 | 40.51056 | -2.47114 | 25393 ft | 376 kts | 296° |
| 2026-05-07 13:32 | 40.52330 | -2.50097 | 24947 ft | 373 kts | 296° |
| 2026-05-07 13:32 | 40.53591 | -2.53065 | 24501 ft | 371 kts | 296° |
| 2026-05-07 13:33 | 40.54845 | -2.56027 | 24044 ft | 369 kts | 296° |
| 2026-05-07 13:33 | 40.56089 | -2.58973 | 23593 ft | 367 kts | 296° |
| 2026-05-07 13:33 | 40.57327 | -2.61902 | 23092 ft | 365 kts | 296° |
| 2026-05-07 13:33 | 40.58558 | -2.64816 | 22623 ft | 363 kts | 296° |
| 2026-05-07 13:34 | 40.59774 | -2.67704 | 22196 ft | 359 kts | 296° |
| 2026-05-07 13:34 | 40.62163 | -2.73398 | 21358 ft | 352 kts | 296° |
| 2026-05-07 13:34 | 40.63340 | -2.76203 | 20995 ft | 347 kts | 296° |
| 2026-05-07 13:35 | 40.64492 | -2.78938 | 20877 ft | 336 kts | 296° |
| 2026-05-07 13:35 | 40.65608 | -2.81582 | 20750 ft | 325 kts | 296° |
| 2026-05-07 13:35 | 40.66721 | -2.84122 | 20613 ft | 316 kts | 297° |
| 2026-05-07 13:35 | 40.67848 | -2.86571 | 20387 ft | 309 kts | 298° |
| 2026-05-07 13:36 | 40.68960 | -2.88943 | 20090 ft | 307 kts | 298° |
| 2026-05-07 13:36 | 40.70094 | -2.91353 | 19762 ft | 305 kts | 298° |
| 2026-05-07 13:36 | 40.71203 | -2.93723 | 19459 ft | 303 kts | 298° |
| 2026-05-07 13:36 | 40.72297 | -2.96077 | 19140 ft | 301 kts | 298° |
| 2026-05-07 13:37 | 40.73368 | -2.98398 | 18835 ft | 299 kts | 298° |
| 2026-05-07 13:37 | 40.74443 | -3.00737 | 18537 ft | 297 kts | 298° |
| 2026-05-07 13:37 | 40.75510 | -3.03064 | 18238 ft | 296 kts | 297° |
| 2026-05-07 13:37 | 40.76570 | -3.05377 | 17902 ft | 294 kts | 298° |
| 2026-05-07 13:38 | 40.77626 | -3.07682 | 17551 ft | 293 kts | 298° |
| 2026-05-07 13:38 | 40.78680 | -3.09980 | 17211 ft | 292 kts | 298° |
| 2026-05-07 13:38 | 40.79727 | -3.12264 | 16894 ft | 290 kts | 298° |
| 2026-05-07 13:38 | 40.80770 | -3.14541 | 16572 ft | 289 kts | 298° |
| 2026-05-07 13:39 | 40.81807 | -3.16805 | 16273 ft | 287 kts | 298° |
| 2026-05-07 13:39 | 40.82835 | -3.19054 | 15981 ft | 286 kts | 298° |
| 2026-05-07 13:39 | 40.83860 | -3.21295 | 15707 ft | 285 kts | 298° |
| 2026-05-07 13:39 | 40.84877 | -3.23528 | 15448 ft | 283 kts | 298° |
| 2026-05-07 13:40 | 40.85887 | -3.25751 | 15172 ft | 282 kts | 298° |
| 2026-05-07 13:40 | 40.86895 | -3.27967 | 14885 ft | 280 kts | 298° |
| 2026-05-07 13:40 | 40.87901 | -3.30172 | 14610 ft | 279 kts | 298° |
| 2026-05-07 13:40 | 40.88900 | -3.32362 | 14340 ft | 278 kts | 298° |
| 2026-05-07 13:41 | 40.89899 | -3.34549 | 14064 ft | 277 kts | 297° |
| 2026-05-07 13:41 | 40.90619 | -3.36862 | 13792 ft | 270 kts | 278° |
| 2026-05-07 13:41 | 40.90660 | -3.39306 | 13491 ft | 264 kts | 257° |
| 2026-05-07 13:41 | 40.90067 | -3.41572 | 13176 ft | 261 kts | 243° |
| 2026-05-07 13:42 | 40.89280 | -3.43731 | 12850 ft | 260 kts | 242° |
| 2026-05-07 13:42 | 40.88502 | -3.45880 | 12561 ft | 259 kts | 242° |
| 2026-05-07 13:42 | 40.87728 | -3.48017 | 12267 ft | 257 kts | 242° |
| 2026-05-07 13:42 | 40.86958 | -3.50141 | 11987 ft | 255 kts | 243° |
| 2026-05-07 13:43 | 40.86193 | -3.52252 | 11679 ft | 254 kts | 242° |
| 2026-05-07 13:43 | 40.85427 | -3.54363 | 11207 ft | 260 kts | 243° |
| 2026-05-07 13:43 | 40.84496 | -3.56463 | 10511 ft | 271 kts | 225° |
| 2026-05-07 13:43 | 40.82865 | -3.57719 | 9798 ft | 281 kts | 193° |
| 2026-05-07 13:44 | 40.80889 | -3.58043 | 8993 ft | 292 kts | 183° |
| 2026-05-07 13:44 | 40.78820 | -3.58041 | 8179 ft | 303 kts | 178° |
| 2026-05-07 13:44 | 40.76714 | -3.57732 | 7356 ft | 303 kts | 174° |
| 2026-05-07 13:44 | 40.74634 | -3.57568 | 6572 ft | 296 kts | 179° |
| 2026-05-07 13:45 | 40.72613 | -3.57579 | 6019 ft | 283 kts | 180° |
| 2026-05-07 13:45 | 40.70705 | -3.57588 | 5623 ft | 266 kts | 179° |
| 2026-05-07 13:45 | 40.68912 | -3.57579 | 5278 ft | 249 kts | 179° |
| 2026-05-07 13:45 | 40.67233 | -3.57567 | 4961 ft | 235 kts | 179° |
| 2026-05-07 13:46 | 40.65641 | -3.57558 | 4657 ft | 224 kts | 179° |
| 2026-05-07 13:46 | 40.64117 | -3.57549 | 4358 ft | 214 kts | 179° |
| 2026-05-07 13:46 | 40.62678 | -3.57541 | 4100 ft | 200 kts | 178° |
| 2026-05-07 13:46 | 40.61344 | -3.57533 | 3821 ft | 183 kts | 179° |
| 2026-05-07 13:47 | 40.60138 | -3.57526 | 3571 ft | 165 kts | 179° |
| 2026-05-07 13:47 | 40.59035 | -3.57520 | 3378 ft | 151 kts | 178° |
| 2026-05-07 13:47 | 40.58012 | -3.57514 | 3162 ft | 145 kts | 178° |
| 2026-05-07 13:47 | 40.57015 | -3.57508 | 2970 ft | 142 kts | 179° |
| 2026-05-07 13:48 | 40.56035 | -3.57502 | 2782 ft | 140 kts | 179° |
| 2026-05-07 13:48 | 40.55067 | -3.57496 | 2598 ft | 138 kts | 176° |
| 2026-05-07 13:48 | 40.54111 | -3.57490 | 2412 ft | 137 kts | 175° |
| 2026-05-07 13:48 | 40.53169 | -3.57485 | 2224 ft | 135 kts | 174° |
| 2026-05-07 13:49 | 40.52230 | -3.57480 | 2044 ft | 134 kts | 173° |
| 2026-05-07 13:49 | 40.51372 | -3.57429 | 1998 ft | 103 kts | 169° |